Marine On Saint Croix, Minnesota
Current Conditions -  °F | °C
As of 4:15 PM on Saturday 25 Oct 2014 (Local Time) from KOEO Reporting Station
Clear Clear  
Wind Chill: 63°   Ceiling: Unl
Heat Index: 63°   Visibility: 10mi
Dew Point: 26°   Wind: 14mph
Humidity: 25%   Direction: 280°W
Pressure: 30.03"   Gusts: NA
Location:  45.37°N, 92.77°W
Report Text: KOEO 252115Z AUTO 28012KT 10SM CLR 17/M03 A3003 RMK AO2 T01701035
Loading
Personal Weather Stations






























Interactive Weather Map
Tropical Storm Tracking
New forecast layout! Learn more

10-Day Weather Forecast

Advertisements
Track Severe Weather on mobile